AirNav   Air Wisconsin Up To $57,000 Bonus
 
 510 users online  

74R Horizon Airport
San Antonio, Texas, USA

GOING TO SAN ANTONIO?


FAA INFORMATION EFFECTIVE 07 OCTOBER 2021

Location

FAA Identifier: 74R
Lat/Long: 29-17-04.5000N 098-29-53.9000W
29-17.075000N 098-29.898333W
29.2845833,-98.4983056
(estimated)
Elevation: 551 ft. / 168 m (estimated)
Variation: 07E (1985)
From city: 9 miles S of SAN ANTONIO, TX
Time zone: UTC -5 (UTC -6 during Standard Time)
Zip code: 78221

Airport Operations

Airport use: Open to the public
Activation date: 04/1945
Control tower: no
ARTCC: HOUSTON CENTER
FSS: SAN ANGELO FLIGHT SERVICE STATION
NOTAMs facility: SJT (NOTAM-D service available)
Attendance: UNATTND
Wind indicator: yes
Segmented circle: no

Airport Communications

CTAF: 122.9
WX ASOS at SSF (3 nm NE): PHONE 210-927-9391
WX ASOS at SAT (15 nm N): PHONE 210-805-5583
WX AWOS-3 at CVB (19 nm W): 119.25 (830-931-0232)
WX AWOS-3 at PEZ (20 nm S): 118.575 (830-569-5749)

Nearby radio navigation aids

VOR radial/distance  VOR name  Freq  Var
SSFr290/(3.3)STINSON VOR108.4009E
RNDr213/18.0RANDOLPH VORTAC112.3005E
SATr177/21.7SAN ANTONIO VORTAC116.8008E

 
NDB name  Hdg/Dist  Freq  Var  ID
DEVINE062/24.735907EHHH .... .... ....

Airport Services

Parking: hangars and tiedowns
Bottled oxygen: NONE
Bulk oxygen: NONE

Runway Information

Runway 11/29

Dimensions: 2360 x 80 ft. / 719 x 24 m
Surface: turf, in poor condition
RWY ROUGH & UNEVEN, NOT RGLRLY MNTND. NOT SUITABLE FOR ACFT.
RUNWAY 11  RUNWAY 29
Latitude: 29-17.161922N29-16.982842N
Longitude: 098-30.013272W098-29.618742W
Elevation: 551.0 ft.540.0 ft.
Traffic pattern: leftleft
Runway heading: 110 magnetic, 117 true290 magnetic, 297 true
Markings: nonenone
Obstructions: 30 ft. trees30 ft. trees

Runway 16/34

Dimensions: 2250 x 100 ft. / 686 x 30 m
Surface: turf, in good condition
RUNWAY 16  RUNWAY 34
Latitude: 29-17.255087N29-16.899377N
Longitude: 098-30.046423W098-29.924860W
Elevation: 551.0 ft.529.0 ft.
Traffic pattern: leftleft
Runway heading: 156 magnetic, 163 true336 magnetic, 343 true
Obstructions: 40 ft. trees40 ft. trees

Airport Ownership and Management from official FAA records

Ownership: Privately-owned
Owner: TOUDOUZE INVESTMENTS INC
PO BOX 40572
SAN ANTONIO, TX 78229
Phone (210) 859-9946
MANAGING PARTNER WILLIAM S. TOUDOUZE.
Manager: WM. TOUDOUZE
13680 PLEASANTON RD.
SAN ANTONIO, TX 78221
Phone (210) 859-9946
ALSO ARPT PHYSICAL ADDR.

Additional Remarks

RWY THRS MKD BY 3 FT WHITE CONES.
NO LINE OF SIGHT BTN RWYS 34 & 29.
WILD HOGS ON OR INVOF ARPT.
FOR CD CTC SAN ANTONIO APCH AT 210-805-5516.
NO COML FLT SVC.

Instrument Procedures

There are no published instrument procedures at 74R.

Some nearby airports with instrument procedures:

KSSF - Stinson Municipal Airport (3 nm NE)
KSKF - Kelly Field Airport (7 nm NW)
KSAT - San Antonio International Airport (15 nm N)
KRND - Randolph Air Force Base (19 nm NE)
KCVB - Castroville Municipal Airport (19 nm W)
KPEZ - Pleasanton Municipal Airport (20 nm S)
 
Loc | Ops | Rwys | IFR | FBO | Links
Com | Nav | Svcs | Stats | Notes
Area around 74R (Horizon Airport)
 
Road maps at: MapQuest Bing Google
 
Aerial photo
WARNING: Photo may not be current or correct
Aerial photo of 74R (Horizon Airport)
Photo by Bill Lux at Bull's Nest, Inc.
Photo taken 24-Oct-2013
looking east.

Do you have a better or more recent aerial photo of Horizon Airport that you would like to share? If so, please send us your photo.

 
Sectional chart

 
Airport distance calculator
Flying to Horizon Airport? Find the distance to fly.

From to 74R

Sunrise and sunset
Times for 21-Oct-2021
 Local
(UTC-5)
 Zulu
(UTC)
Morning civil twilight07:1612:16
Sunrise07:4012:40
Sunset18:5723:57
Evening civil twilight19:2100:21

Current date and time
Zulu (UTC)  21-Oct-2021 09:35:38
Local (UTC-5)  21-Oct-2021 04:35:38
 
METAR
KSSF 
3nm NE 
210853Z AUTO 00000KT 10SM CLR 19/18 A3007 RMK AO2 SLP174 T01940178 58001
KSKF 
6nm NW 
210856Z AUTO 33004KT 10SM CLR 18/17 A3008 RMK AO2 SLP180 T01830173 58001 $
KSAT 
15nm N 
210851Z 30004KT 10SM FEW250 18/17 A3011 RMK AO2 SLP178 T01830172 50001
KRND 
18nm NE 
210856Z AUTO 33005KT 10SM CLR 17/17 A3008 RMK AO2 SLP180 T01740172 50000
KCVB 
19nm W 
202012Z AUTO 00000KT SCT031 SCT037 OVC044 29/19 A3007 RMK AO2 PWINO
KPEZ 
20nm S 
210915Z AUTO 00000KT 10SM CLR 19/18 A3010 RMK AO2 T01850181
TAF
KSSF 
3nm NE 
210524Z 2106/2206 00000KT P6SM FEW250 FM211100 VRB02KT 5SM BR FEW007 FM211400 06005KT P6SM SCT030 SCT130
KSKF 
6nm NW 
210800Z 2108/2208 VRB06KT 9999 SKC QNH3001INS BECMG 2109/2110 07006KT 9999 BKN020 QNH3008INS BECMG 2114/2115 09008KT 9999 BKN025 QNH3009INS TX28/2121Z TN22/2112Z
KSAT 
15nm N 
210524Z 2106/2212 00000KT P6SM FEW250 FM211100 VRB02KT 6SM BR FEW007 FM211400 06005KT P6SM SCT030 SCT130
KRND 
18nm NE 
202031Z 2021/2203 VRB06KT 9999 BKN030 BKN250 QNH2999INS BECMG 2108/2109 VRB06KT 8000 BR SCT012 OVC019 QNH3008INS BECMG 2111/2112 VRB06KT 4800 BR BKN005 OVC012 QNH3012INS BECMG 2114/2115 13008KT 8000 BR SCT012 OVC020 QNH3015INS BECMG 2116/2117 16010KT 9999 NSW BKN035 BKN250 QNH3011INS TX28/2022Z TN18/2112Z LAST NO AMDS AFT 2103 NEXT 2110
NOTAMs
Click for the latest NOTAMs
NOTAMs are issued by the DoD/FAA and will open in a separate window not controlled by AirNav.

 

 
 

Would you like to see your business listed on this page?

 If your business provides an interesting product or service to pilots, flight crews, aircraft, or users of the Horizon Airport, you should consider listing it here.  To start the listing process, click on the button below
 
Add a business
 

Other Pages about Horizon Airport

Update a link
 
Copyright © AirNav, LLC. All rights reserved. Privacy Policy  Contact